sensor_id;sensor_type;location;lat;lon;timestamp;pressure;altitude;pressure_sealevel;temperature;humidity
12973;BME280;6551;51.056;9.466;2023-01-28T00:01:24;98511.25;;;4.23;78.79
12973;BME280;6551;51.056;9.466;2023-01-28T00:03:51;98508.63;;;4.23;78.49
12973;BME280;6551;51.056;9.466;2023-01-28T00:06:17;98506.31;;;4.28;78.36
12973;BME280;6551;51.056;9.466;2023-01-28T00:08:43;98501.44;;;4.33;78.54
12973;BME280;6551;51.056;9.466;2023-01-28T00:11:12;98507.69;;;4.32;77.89
12973;BME280;6551;51.056;9.466;2023-01-28T00:13:39;98500.28;;;4.35;77.77
12973;BME280;6551;51.056;9.466;2023-01-28T00:16:07;98509.44;;;4.23;77.95
12973;BME280;6551;51.056;9.466;2023-01-28T00:18:33;98505.84;;;4.24;78.15
12973;BME280;6551;51.056;9.466;2023-01-28T00:21:07;98502.72;;;4.29;77.77
12973;BME280;6551;51.056;9.466;2023-01-28T00:23:36;98501.72;;;4.22;77.78
12973;BME280;6551;51.056;9.466;2023-01-28T00:26:07;98493.13;;;4.20;77.67
12973;BME280;6551;51.056;9.466;2023-01-28T00:28:35;98504.84;;;4.25;77.15
12973;BME280;6551;51.056;9.466;2023-01-28T00:31:24;98501.88;;;4.28;77.56
12973;BME280;6551;51.056;9.466;2023-01-28T00:33:52;98495.78;;;4.28;77.42
12973;BME280;6551;51.056;9.466;2023-01-28T00:36:23;98490.38;;;4.29;77.21
12973;BME280;6551;51.056;9.466;2023-01-28T00:38:56;98488.59;;;4.38;77.03
12973;BME280;6551;51.056;9.466;2023-01-28T00:41:27;98492.22;;;4.45;76.71
12973;BME280;6551;51.056;9.466;2023-01-28T00:43:54;98493.22;;;4.36;77.15
12973;BME280;6551;51.056;9.466;2023-01-28T00:46:22;98486.75;;;4.30;76.98
12973;BME280;6551;51.056;9.466;2023-01-28T00:48:52;98489.53;;;4.29;77.25
12973;BME280;6551;51.056;9.466;2023-01-28T00:51:19;98482.16;;;4.32;77.06
12973;BME280;6551;51.056;9.466;2023-01-28T00:53:46;98479.63;;;4.23;76.67
12973;BME280;6551;51.056;9.466;2023-01-28T00:56:15;98469.63;;;4.34;76.66
12973;BME280;6551;51.056;9.466;2023-01-28T00:58:43;98474.41;;;4.39;76.12
12973;BME280;6551;51.056;9.466;2023-01-28T01:01:16;98463.06;;;4.38;76.16
12973;BME280;6551;51.056;9.466;2023-01-28T01:03:42;98462.66;;;4.25;76.07
12973;BME280;6551;51.056;9.466;2023-01-28T01:06:10;98465.97;;;4.19;76.05
12973;BME280;6551;51.056;9.466;2023-01-28T01:08:36;98462.97;;;4.22;76.21
12973;BME280;6551;51.056;9.466;2023-01-28T01:11:11;98464.44;;;4.17;75.76
12973;BME280;6551;51.056;9.466;2023-01-28T01:13:37;98471.88;;;4.13;75.56
12973;BME280;6551;51.056;9.466;2023-01-28T01:16:14;98466.06;;;4.09;75.99
12973;BME280;6551;51.056;9.466;2023-01-28T01:18:43;98476.78;;;4.08;76.27
12973;BME280;6551;51.056;9.466;2023-01-28T01:21:22;98473.81;;;4.11;76.01
12973;BME280;6551;51.056;9.466;2023-01-28T01:23:48;98477.25;;;4.03;75.83
12973;BME280;6551;51.056;9.466;2023-01-28T01:26:14;98478.72;;;4.06;75.86
12973;BME280;6551;51.056;9.466;2023-01-28T01:28:40;98483.22;;;4.13;75.94
12973;BME280;6551;51.056;9.466;2023-01-28T01:31:18;98485.22;;;4.20;76.10
12973;BME280;6551;51.056;9.466;2023-01-28T01:33:49;98478.66;;;4.24;76.08
12973;BME280;6551;51.056;9.466;2023-01-28T01:36:18;98486.22;;;4.19;75.65
12973;BME280;6551;51.056;9.466;2023-01-28T01:38:52;98488.72;;;4.28;75.83
12973;BME280;6551;51.056;9.466;2023-01-28T01:41:31;98484.94;;;4.31;75.39
12973;BME280;6551;51.056;9.466;2023-01-28T01:44:03;98482.31;;;4.39;75.58
12973;BME280;6551;51.056;9.466;2023-01-28T01:46:47;98479.06;;;4.45;75.67
12973;BME280;6551;51.056;9.466;2023-01-28T01:51:55;98479.25;;;4.59;74.77
12973;BME280;6551;51.056;9.466;2023-01-28T01:54:25;98476.44;;;4.61;74.53
12973;BME280;6551;51.056;9.466;2023-01-28T01:56:54;98481.72;;;4.61;74.28
12973;BME280;6551;51.056;9.466;2023-01-28T01:59:26;98482.88;;;4.58;74.72
12973;BME280;6551;51.056;9.466;2023-01-28T02:01:54;98484.22;;;4.62;74.16
12973;BME280;6551;51.056;9.466;2023-01-28T02:04:34;98486.88;;;4.70;74.06
12973;BME280;6551;51.056;9.466;2023-01-28T02:07:04;98480.94;;;4.68;73.89
12973;BME280;6551;51.056;9.466;2023-01-28T02:09:34;98484.22;;;4.62;73.68
12973;BME280;6551;51.056;9.466;2023-01-28T02:12:20;98495.94;;;4.68;73.69
12973;BME280;6551;51.056;9.466;2023-01-28T02:14:53;98490.09;;;4.48;73.91
12973;BME280;6551;51.056;9.466;2023-01-28T02:17:21;98486.13;;;4.44;74.14
12973;BME280;6551;51.056;9.466;2023-01-28T02:20:03;98494.53;;;4.40;73.79
12973;BME280;6551;51.056;9.466;2023-01-28T02:23:14;98495.91;;;4.52;74.20
12973;BME280;6551;51.056;9.466;2023-01-28T02:29:18;98515.47;;;4.41;74.46
12973;BME280;6551;51.056;9.466;2023-01-28T02:32:21;98510.50;;;4.38;73.62
12973;BME280;6551;51.056;9.466;2023-01-28T02:35:45;98513.28;;;4.37;73.94
12973;BME280;6551;51.056;9.466;2023-01-28T02:38:11;98507.16;;;4.28;73.54
12973;BME280;6551;51.056;9.466;2023-01-28T02:40:44;98510.31;;;4.32;73.69
12973;BME280;6551;51.056;9.466;2023-01-28T02:43:43;98512.53;;;4.10;73.62
12973;BME280;6551;51.056;9.466;2023-01-28T02:52:18;98507.88;;;4.04;74.44
12973;BME280;6551;51.056;9.466;2023-01-28T02:55:43;98517.91;;;4.01;74.50
12973;BME280;6551;51.056;9.466;2023-01-28T03:01:35;98523.53;;;4.06;74.59
12973;BME280;6551;51.056;9.466;2023-01-28T03:04:18;98535.41;;;4.10;74.45
12973;BME280;6551;51.056;9.466;2023-01-28T03:06:52;98537.44;;;4.16;74.32
12973;BME280;6551;51.056;9.466;2023-01-28T03:09:21;98538.94;;;4.19;74.46
12973;BME280;6551;51.056;9.466;2023-01-28T03:12:22;98542.69;;;4.16;74.23
12973;BME280;6551;51.056;9.466;2023-01-28T03:15:22;98547.84;;;4.26;74.17
12973;BME280;6551;51.056;9.466;2023-01-28T03:18:34;98541.28;;;4.30;74.23
12973;BME280;6551;51.056;9.466;2023-01-28T03:21:32;98537.16;;;4.27;74.26
12973;BME280;6551;51.056;9.466;2023-01-28T03:24:30;98540.47;;;4.29;74.26
12973;BME280;6551;51.056;9.466;2023-01-28T03:30:27;98541.06;;;4.23;74.11
12973;BME280;6551;51.056;9.466;2023-01-28T03:33:14;98541.59;;;4.27;74.03
12973;BME280;6551;51.056;9.466;2023-01-28T03:36:00;98538.31;;;4.25;74.01
12973;BME280;6551;51.056;9.466;2023-01-28T03:38:45;98540.13;;;4.32;73.96
12973;BME280;6551;51.056;9.466;2023-01-28T03:41:20;98547.75;;;4.35;73.79
12973;BME280;6551;51.056;9.466;2023-01-28T03:43:47;98543.13;;;4.37;73.63
12973;BME280;6551;51.056;9.466;2023-01-28T03:46:14;98542.63;;;4.42;73.35
12973;BME280;6551;51.056;9.466;2023-01-28T03:48:40;98544.09;;;4.36;73.56
12973;BME280;6551;51.056;9.466;2023-01-28T03:51:06;98549.88;;;4.40;73.38
12973;BME280;6551;51.056;9.466;2023-01-28T03:53:31;98549.25;;;4.46;73.58
12973;BME280;6551;51.056;9.466;2023-01-28T03:55:57;98550.25;;;4.45;73.14
12973;BME280;6551;51.056;9.466;2023-01-28T03:58:24;98550.25;;;4.45;72.63
12973;BME280;6551;51.056;9.466;2023-01-28T04:01:13;98547.03;;;4.33;73.14
12973;BME280;6551;51.056;9.466;2023-01-28T04:03:38;98557.59;;;4.33;72.63
12973;BME280;6551;51.056;9.466;2023-01-28T04:06:07;98555.81;;;4.42;72.98
12973;BME280;6551;51.056;9.466;2023-01-28T04:08:33;98553.88;;;4.44;73.14
12973;BME280;6551;51.056;9.466;2023-01-28T04:10:59;98551.06;;;4.45;72.61
12973;BME280;6551;51.056;9.466;2023-01-28T04:13:47;98558.63;;;4.40;71.84
12973;BME280;6551;51.056;9.466;2023-01-28T04:16:16;98558.44;;;4.34;71.85
12973;BME280;6551;51.056;9.466;2023-01-28T04:18:44;98560.78;;;4.45;71.61
12973;BME280;6551;51.056;9.466;2023-01-28T04:21:10;98558.44;;;4.34;71.35
12973;BME280;6551;51.056;9.466;2023-01-28T04:23:36;98551.00;;;4.29;71.06
12973;BME280;6551;51.056;9.466;2023-01-28T04:26:01;98557.81;;;4.40;70.91
12973;BME280;6551;51.056;9.466;2023-01-28T04:28:30;98554.19;;;4.41;71.01
12973;BME280;6551;51.056;9.466;2023-01-28T04:30:57;98553.66;;;4.37;71.09
12973;BME280;6551;51.056;9.466;2023-01-28T04:33:24;98551.59;;;4.49;70.88
12973;BME280;6551;51.056;9.466;2023-01-28T04:35:50;98552.91;;;4.53;70.82
12973;BME280;6551;51.056;9.466;2023-01-28T04:38:17;98543.19;;;4.53;70.54
12973;BME280;6551;51.056;9.466;2023-01-28T04:40:48;98552.41;;;4.49;70.43
12973;BME280;6551;51.056;9.466;2023-01-28T04:43:14;98555.19;;;4.48;70.40
12973;BME280;6551;51.056;9.466;2023-01-28T04:45:40;98547.91;;;4.42;70.80
12973;BME280;6551;51.056;9.466;2023-01-28T04:48:06;98550.44;;;4.51;70.28
12973;BME280;6551;51.056;9.466;2023-01-28T04:50:32;98552.72;;;4.46;70.38
12973;BME280;6551;51.056;9.466;2023-01-28T04:52:59;98555.59;;;4.27;70.05
12973;BME280;6551;51.056;9.466;2023-01-28T04:55:24;98548.72;;;4.34;69.91
12973;BME280;6551;51.056;9.466;2023-01-28T04:57:51;98553.50;;;4.39;69.66
12973;BME280;6551;51.056;9.466;2023-01-28T05:00:18;98555.81;;;4.42;69.98
12973;BME280;6551;51.056;9.466;2023-01-28T05:02:43;98553.50;;;4.39;69.45
12973;BME280;6551;51.056;9.466;2023-01-28T05:05:09;98549.56;;;4.43;69.59
12973;BME280;6551;51.056;9.466;2023-01-28T05:07:35;98550.56;;;4.42;68.82
12973;BME280;6551;51.056;9.466;2023-01-28T05:10:03;98553.19;;;4.42;68.75
12973;BME280;6551;51.056;9.466;2023-01-28T05:12:30;98554.84;;;4.43;68.48
12973;BME280;6551;51.056;9.466;2023-01-28T05:14:59;98559.13;;;4.36;68.70
12973;BME280;6551;51.056;9.466;2023-01-28T05:17:29;98571.00;;;4.48;68.64
12973;BME280;6551;51.056;9.466;2023-01-28T05:19:56;98561.38;;;4.31;68.54
12973;BME280;6551;51.056;9.466;2023-01-28T05:22:23;98557.06;;;4.22;68.56
12973;BME280;6551;51.056;9.466;2023-01-28T05:24:48;98551.84;;;4.04;68.42
12973;BME280;6551;51.056;9.466;2023-01-28T05:27:15;98557.50;;;4.17;68.18
12973;BME280;6551;51.056;9.466;2023-01-28T05:29:42;98560.00;;;4.19;68.01
12973;BME280;6551;51.056;9.466;2023-01-28T05:32:08;98556.38;;;4.20;68.61
12973;BME280;6551;51.056;9.466;2023-01-28T05:34:33;98561.47;;;4.13;68.10
12973;BME280;6551;51.056;9.466;2023-01-28T05:37:01;98558.59;;;4.32;67.81
12973;BME280;6551;51.056;9.466;2023-01-28T05:39:28;98557.75;;;4.32;67.54
12973;BME280;6551;51.056;9.466;2023-01-28T05:41:55;98559.69;;;4.22;67.35
12973;BME280;6551;51.056;9.466;2023-01-28T05:44:21;98557.81;;;4.14;67.36
12973;BME280;6551;51.056;9.466;2023-01-28T05:46:47;98566.00;;;4.03;66.94
12973;BME280;6551;51.056;9.466;2023-01-28T05:49:14;98570.28;;;4.04;67.11
12973;BME280;6551;51.056;9.466;2023-01-28T05:51:41;98566.09;;;3.93;66.43
12973;BME280;6551;51.056;9.466;2023-01-28T05:54:08;98567.88;;;4.10;66.61
12973;BME280;6551;51.056;9.466;2023-01-28T05:56:35;98573.31;;;4.17;66.25
12973;BME280;6551;51.056;9.466;2023-01-28T05:59:03;98575.66;;;4.20;66.40
12973;BME280;6551;51.056;9.466;2023-01-28T06:01:29;98571.53;;;4.18;65.90
12973;BME280;6551;51.056;9.466;2023-01-28T06:03:56;98576.97;;;4.16;65.86
12973;BME280;6551;51.056;9.466;2023-01-28T06:06:24;98575.50;;;4.22;65.88
12973;BME280;6551;51.056;9.466;2023-01-28T06:08:51;98583.78;;;4.27;65.84
12973;BME280;6551;51.056;9.466;2023-01-28T06:11:17;98572.84;;;4.13;65.42
12973;BME280;6551;51.056;9.466;2023-01-28T06:13:42;98578.28;;;4.20;65.55
12973;BME280;6551;51.056;9.466;2023-01-28T06:16:11;98581.75;;;4.21;65.34
12973;BME280;6551;51.056;9.466;2023-01-28T06:18:36;98581.22;;;4.17;64.63
12973;BME280;6551;51.056;9.466;2023-01-28T06:21:03;98581.44;;;4.24;64.70
12973;BME280;6551;51.056;9.466;2023-01-28T06:23:30;98582.28;;;4.24;64.70
12973;BME280;6551;51.056;9.466;2023-01-28T06:25:58;98587.25;;;4.27;64.20
12973;BME280;6551;51.056;9.466;2023-01-28T06:28:25;98586.66;;;4.16;64.46
12973;BME280;6551;51.056;9.466;2023-01-28T06:30:52;98589.34;;;4.24;65.08
12973;BME280;6551;51.056;9.466;2023-01-28T06:33:19;98585.09;;;4.31;65.44
12973;BME280;6551;51.056;9.466;2023-01-28T06:35:46;98589.28;;;4.41;65.46
12973;BME280;6551;51.056;9.466;2023-01-28T06:38:14;98597.69;;;4.45;65.10
12973;BME280;6551;51.056;9.466;2023-01-28T06:40:39;98592.09;;;4.48;65.51
12973;BME280;6551;51.056;9.466;2023-01-28T06:43:06;98601.81;;;4.47;65.09
12973;BME280;6551;51.056;9.466;2023-01-28T06:45:33;98602.78;;;4.38;64.31
12973;BME280;6551;51.056;9.466;2023-01-28T06:48:00;98592.19;;;4.30;64.40
12973;BME280;6551;51.056;9.466;2023-01-28T06:50:25;98600.72;;;4.24;64.07
12973;BME280;6551;51.056;9.466;2023-01-28T06:52:52;98613.72;;;4.26;63.33
12973;BME280;6551;51.056;9.466;2023-01-28T06:55:18;98614.03;;;4.23;63.87
12973;BME280;6551;51.056;9.466;2023-01-28T06:57:46;98616.53;;;4.24;63.49
12973;BME280;6551;51.056;9.466;2023-01-28T07:00:13;98618.44;;;4.14;63.78
12973;BME280;6551;51.056;9.466;2023-01-28T07:02:41;98619.75;;;4.10;64.54
12973;BME280;6551;51.056;9.466;2023-01-28T07:05:07;98626.81;;;4.09;64.63
12973;BME280;6551;51.056;9.466;2023-01-28T07:07:33;98619.44;;;4.13;64.46
12973;BME280;6551;51.056;9.466;2023-01-28T07:10:00;98621.91;;;4.14;63.95
12973;BME280;6551;51.056;9.466;2023-01-28T07:12:27;98625.59;;;4.22;64.15
12973;BME280;6551;51.056;9.466;2023-01-28T07:14:53;98625.97;;;4.09;63.52
12973;BME280;6551;51.056;9.466;2023-01-28T07:17:19;98625.38;;;4.15;63.65
12973;BME280;6551;51.056;9.466;2023-01-28T07:19:46;98626.03;;;4.17;64.08
12973;BME280;6551;51.056;9.466;2023-01-28T07:22:12;98621.94;;;4.23;63.90
12973;BME280;6551;51.056;9.466;2023-01-28T07:24:37;98621.81;;;4.24;63.42
12973;BME280;6551;51.056;9.466;2023-01-28T07:27:04;98623.31;;;4.27;64.10
12973;BME280;6551;51.056;9.466;2023-01-28T07:29:31;98629.91;;;4.31;64.47
12973;BME280;6551;51.056;9.466;2023-01-28T07:31:59;98622.53;;;4.34;64.23
12973;BME280;6551;51.056;9.466;2023-01-28T07:34:26;98627.00;;;4.42;64.48
12973;BME280;6551;51.056;9.466;2023-01-28T07:36:53;98627.31;;;4.39;64.54
12973;BME280;6551;51.056;9.466;2023-01-28T07:39:19;98632.94;;;4.36;64.43
12973;BME280;6551;51.056;9.466;2023-01-28T07:41:46;98627.09;;;4.24;63.38
12973;BME280;6551;51.056;9.466;2023-01-28T07:44:12;98627.31;;;4.39;63.65
12973;BME280;6551;51.056;9.466;2023-01-28T07:46:39;98633.63;;;4.46;63.57
12973;BME280;6551;51.056;9.466;2023-01-28T07:49:04;98632.97;;;4.44;63.50
12973;BME280;6551;51.056;9.466;2023-01-28T07:51:31;98627.75;;;4.52;63.73
12973;BME280;6551;51.056;9.466;2023-01-28T07:53:58;98621.16;;;4.56;63.99
12973;BME280;6551;51.056;9.466;2023-01-28T07:56:25;98626.13;;;4.59;63.98
12973;BME280;6551;51.056;9.466;2023-01-28T07:58:55;98623.41;;;4.43;63.47
12973;BME280;6551;51.056;9.466;2023-01-28T08:01:21;98619.94;;;4.42;63.44
12973;BME280;6551;51.056;9.466;2023-01-28T08:03:48;98616.19;;;4.53;63.12
12973;BME280;6551;51.056;9.466;2023-01-28T08:06:14;98624.84;;;4.63;63.52
12973;BME280;6551;51.056;9.466;2023-01-28T08:08:40;98627.16;;;4.66;63.33
12973;BME280;6551;51.056;9.466;2023-01-28T08:11:08;98620.03;;;4.66;63.46
12973;BME280;6551;51.056;9.466;2023-01-28T08:13:35;98627.13;;;4.58;62.09
12973;BME280;6551;51.056;9.466;2023-01-28T08:16:01;98620.31;;;4.55;61.73
12973;BME280;6551;51.056;9.466;2023-01-28T08:18:27;98627.91;;;4.58;61.59
12973;BME280;6551;51.056;9.466;2023-01-28T08:20:57;98635.88;;;4.66;61.89
12973;BME280;6551;51.056;9.466;2023-01-28T08:23:25;98632.56;;;4.64;61.21
12973;BME280;6551;51.056;9.466;2023-01-28T08:25:52;98630.16;;;4.71;61.81
12973;BME280;6551;51.056;9.466;2023-01-28T08:28:19;98635.75;;;4.76;61.81
12973;BME280;6551;51.056;9.466;2023-01-28T08:30:46;98639.41;;;4.83;61.88
12973;BME280;6551;51.056;9.466;2023-01-28T08:33:14;98631.59;;;4.65;61.65
12973;BME280;6551;51.056;9.466;2023-01-28T08:35:40;98637.59;;;4.84;62.02
12973;BME280;6551;51.056;9.466;2023-01-28T08:38:09;98639.28;;;4.85;61.83
12973;BME280;6551;51.056;9.466;2023-01-28T08:40:36;98644.38;;;4.86;61.65
12973;BME280;6551;51.056;9.466;2023-01-28T08:43:03;98640.75;;;4.87;61.67
12973;BME280;6551;51.056;9.466;2023-01-28T08:45:31;98643.38;;;4.79;61.48
12973;BME280;6551;51.056;9.466;2023-01-28T08:48:05;98649.16;;;4.83;61.25
12973;BME280;6551;51.056;9.466;2023-01-28T08:50:37;98646.00;;;4.79;61.76
12973;BME280;6551;51.056;9.466;2023-01-28T08:53:07;98651.97;;;4.89;61.88
12973;BME280;6551;51.056;9.466;2023-01-28T08:55:34;98655.97;;;4.93;61.15
12973;BME280;6551;51.056;9.466;2023-01-28T08:58:05;98650.16;;;4.90;60.96
12973;BME280;6551;51.056;9.466;2023-01-28T09:00:33;98647.72;;;4.96;60.90
12973;BME280;6551;51.056;9.466;2023-01-28T09:02:59;98647.75;;;5.04;60.22
12973;BME280;6551;51.056;9.466;2023-01-28T09:05:25;98652.88;;;5.14;60.75
12973;BME280;6551;51.056;9.466;2023-01-28T09:07:52;98652.41;;;5.10;60.97
12973;BME280;6551;51.056;9.466;2023-01-28T09:10:19;98649.94;;;5.25;60.13
12973;BME280;6551;51.056;9.466;2023-01-28T09:12:47;98654.88;;;5.12;60.49
12973;BME280;6551;51.056;9.466;2023-01-28T09:15:13;98661.63;;;5.14;59.98
12973;BME280;6551;51.056;9.466;2023-01-28T09:17:39;98661.84;;;5.21;59.99
12973;BME280;6551;51.056;9.466;2023-01-28T09:20:07;98661.19;;;5.27;59.96
12973;BME280;6551;51.056;9.466;2023-01-28T09:22:34;98648.97;;;5.26;59.51
12973;BME280;6551;51.056;9.466;2023-01-28T09:24:59;98656.09;;;5.33;59.50
12973;BME280;6551;51.056;9.466;2023-01-28T09:27:25;98668.00;;;5.38;59.67
12973;BME280;6551;51.056;9.466;2023-01-28T09:29:53;98667.50;;;5.50;59.52
12973;BME280;6551;51.056;9.466;2023-01-28T09:32:18;98663.03;;;5.43;59.06
12973;BME280;6551;51.056;9.466;2023-01-28T09:34:45;98679.06;;;5.33;59.16
12973;BME280;6551;51.056;9.466;2023-01-28T09:37:12;98687.78;;;5.42;59.15
12973;BME280;6551;51.056;9.466;2023-01-28T09:39:40;98683.22;;;5.52;59.08
12973;BME280;6551;51.056;9.466;2023-01-28T09:42:29;98704.69;;;5.57;58.88
12973;BME280;6551;51.056;9.466;2023-01-28T09:45:16;98710.50;;;5.68;59.25
12973;BME280;6551;51.056;9.466;2023-01-28T09:48:04;98708.16;;;5.57;59.94
12973;BME280;6551;51.056;9.466;2023-01-28T09:50:40;98712.38;;;5.42;60.64
12973;BME280;6551;51.056;9.466;2023-01-28T09:53:24;98716.03;;;5.41;60.94
12973;BME280;6551;51.056;9.466;2023-01-28T09:58:25;98716.81;;;5.33;60.89
12973;BME280;6551;51.056;9.466;2023-01-28T10:01:35;98714.84;;;5.27;60.75
12973;BME280;6551;51.056;9.466;2023-01-28T10:07:33;98719.31;;;5.35;61.37
12973;BME280;6551;51.056;9.466;2023-01-28T10:10:27;98709.75;;;5.42;60.24
12973;BME280;6551;51.056;9.466;2023-01-28T10:13:44;98717.69;;;5.50;60.36
12973;BME280;6551;51.056;9.466;2023-01-28T10:16:30;98719.56;;;5.58;60.13
12973;BME280;6551;51.056;9.466;2023-01-28T10:19:15;98713.75;;;5.54;59.90
12973;BME280;6551;51.056;9.466;2023-01-28T10:24:57;98707.97;;;5.59;59.69
12973;BME280;6551;51.056;9.466;2023-01-28T10:27:32;98705.34;;;5.59;59.83
12973;BME280;6551;51.056;9.466;2023-01-28T10:30:31;98705.53;;;5.57;58.93
12973;BME280;6551;51.056;9.466;2023-01-28T10:33:37;98706.34;;;5.50;59.31
12973;BME280;6551;51.056;9.466;2023-01-28T10:36:05;98704.97;;;5.46;59.15
12973;BME280;6551;51.056;9.466;2023-01-28T10:38:32;98707.81;;;5.44;59.54
12973;BME280;6551;51.056;9.466;2023-01-28T10:41:02;98711.75;;;5.48;58.56
12973;BME280;6551;51.056;9.466;2023-01-28T10:43:33;98709.44;;;5.53;58.88
12973;BME280;6551;51.056;9.466;2023-01-28T10:46:13;98703.72;;;5.58;59.62
12973;BME280;6551;51.056;9.466;2023-01-28T10:51:41;98704.88;;;5.63;58.73
12973;BME280;6551;51.056;9.466;2023-01-28T10:54:27;98695.47;;;5.69;59.31
12973;BME280;6551;51.056;9.466;2023-01-28T10:57:08;98692.50;;;5.72;58.74
12973;BME280;6551;51.056;9.466;2023-01-28T10:59:36;98692.84;;;5.77;58.49
12973;BME280;6551;51.056;9.466;2023-01-28T11:02:30;98699.41;;;5.65;57.90
12973;BME280;6551;51.056;9.466;2023-01-28T11:05:29;98700.38;;;5.56;57.62
12973;BME280;6551;51.056;9.466;2023-01-28T11:08:14;98701.06;;;5.58;58.16
12973;BME280;6551;51.056;9.466;2023-01-28T11:10:41;98708.78;;;5.43;58.24
12973;BME280;6551;51.056;9.466;2023-01-28T11:13:26;98704.22;;;5.19;58.28
12973;BME280;6551;51.056;9.466;2023-01-28T11:16:09;98704.63;;;5.32;58.30
12973;BME280;6551;51.056;9.466;2023-01-28T11:18:50;98705.25;;;5.26;58.41
12973;BME280;6551;51.056;9.466;2023-01-28T11:21:23;98706.91;;;5.27;58.40
12973;BME280;6551;51.056;9.466;2023-01-28T11:23:58;98701.47;;;5.29;57.92
12973;BME280;6551;51.056;9.466;2023-01-28T11:26:31;98700.84;;;5.35;58.95
12973;BME280;6551;51.056;9.466;2023-01-28T11:28:58;98705.16;;;5.44;58.72
12973;BME280;6551;51.056;9.466;2023-01-28T11:31:25;98701.81;;;5.42;58.14
12973;BME280;6551;51.056;9.466;2023-01-28T11:34:00;98699.56;;;5.55;58.00
12973;BME280;6551;51.056;9.466;2023-01-28T11:36:32;98701.41;;;5.63;58.05
12973;BME280;6551;51.056;9.466;2023-01-28T11:39:23;98703.09;;;5.80;58.03
12973;BME280;6551;51.056;9.466;2023-01-28T11:41:51;98693.50;;;5.79;57.35
12973;BME280;6551;51.056;9.466;2023-01-28T11:44:26;98684.97;;;5.85;57.27
12973;BME280;6551;51.056;9.466;2023-01-28T11:52:59;98689.50;;;5.59;57.27
12973;BME280;6551;51.056;9.466;2023-01-28T11:58:47;98682.59;;;5.74;57.99
12973;BME280;6551;51.056;9.466;2023-01-28T12:01:38;98673.66;;;5.67;57.60
12973;BME280;6551;51.056;9.466;2023-01-28T12:04:51;98674.28;;;5.53;57.96
12973;BME280;6551;51.056;9.466;2023-01-28T12:22:12;98668.53;;;5.65;57.71
12973;BME280;6551;51.056;9.466;2023-01-28T12:40:32;98679.94;;;5.66;57.38
12973;BME280;6551;51.056;9.466;2023-01-28T12:46:52;98689.47;;;5.51;56.91
12973;BME280;6551;51.056;9.466;2023-01-28T12:49:52;98685.00;;;5.43;56.36
12973;BME280;6551;51.056;9.466;2023-01-28T12:52:31;98687.97;;;5.40;56.80
12973;BME280;6551;51.056;9.466;2023-01-28T12:55:40;98686.47;;;5.29;56.64
12973;BME280;6551;51.056;9.466;2023-01-28T12:58:20;98683.16;;;5.27;57.15
12973;BME280;6551;51.056;9.466;2023-01-28T13:00:55;98674.19;;;5.12;56.94
12973;BME280;6551;51.056;9.466;2023-01-28T13:06:54;98678.34;;;5.23;57.93
12973;BME280;6551;51.056;9.466;2023-01-28T13:09:24;98684.25;;;5.17;57.91
12973;BME280;6551;51.056;9.466;2023-01-28T13:11:56;98679.59;;;5.11;58.14
12973;BME280;6551;51.056;9.466;2023-01-28T13:14:30;98666.88;;;4.98;59.20
12973;BME280;6551;51.056;9.466;2023-01-28T13:17:12;98666.53;;;4.93;59.63
12973;BME280;6551;51.056;9.466;2023-01-28T13:19:49;98670.63;;;4.88;59.09
12973;BME280;6551;51.056;9.466;2023-01-28T13:22:36;98666.22;;;4.96;59.51
12973;BME280;6551;51.056;9.466;2023-01-28T13:25:24;98667.69;;;4.99;59.03
12973;BME280;6551;51.056;9.466;2023-01-28T13:28:02;98675.09;;;4.95;58.62
12973;BME280;6551;51.056;9.466;2023-01-28T13:30:35;98661.75;;;4.97;58.69
12973;BME280;6551;51.056;9.466;2023-01-28T13:36:42;98667.50;;;4.92;59.00
12973;BME280;6551;51.056;9.466;2023-01-28T13:39:20;98667.19;;;4.95;58.79
12973;BME280;6551;51.056;9.466;2023-01-28T13:42:09;98664.13;;;5.08;58.67
12973;BME280;6551;51.056;9.466;2023-01-28T13:44:47;98659.84;;;5.15;58.21
12973;BME280;6551;51.056;9.466;2023-01-28T13:47:35;98662.66;;;5.21;58.18
12973;BME280;6551;51.056;9.466;2023-01-28T13:50:13;98669.94;;;5.27;58.46
12973;BME280;6551;51.056;9.466;2023-01-28T13:53:05;98667.94;;;5.13;58.32
12973;BME280;6551;51.056;9.466;2023-01-28T13:55:41;98665.31;;;5.21;57.77
12973;BME280;6551;51.056;9.466;2023-01-28T14:01:49;98657.06;;;5.16;58.00
12973;BME280;6551;51.056;9.466;2023-01-28T14:14:52;98644.22;;;5.29;57.01
12973;BME280;6551;51.056;9.466;2023-01-28T14:17:54;98647.38;;;5.33;57.68
12973;BME280;6551;51.056;9.466;2023-01-28T14:20:34;98656.09;;;5.42;57.07
12973;BME280;6551;51.056;9.466;2023-01-28T14:23:16;98647.38;;;5.33;56.79
12973;BME280;6551;51.056;9.466;2023-01-28T14:25:57;98646.34;;;5.34;57.42
12973;BME280;6551;51.056;9.466;2023-01-28T14:31:34;98620.28;;;5.47;56.69
12973;BME280;6551;51.056;9.466;2023-01-28T14:34:30;98621.31;;;5.54;55.67
12973;BME280;6551;51.056;9.466;2023-01-28T14:37:08;98615.53;;;5.51;56.34
12973;BME280;6551;51.056;9.466;2023-01-28T14:39:47;98607.91;;;5.48;56.11
12973;BME280;6551;51.056;9.466;2023-01-28T14:42:22;98618.78;;;5.37;56.11
12973;BME280;6551;51.056;9.466;2023-01-28T14:59:50;98634.38;;;5.06;56.36
12973;BME280;6551;51.056;9.466;2023-01-28T15:02:31;98645.94;;;4.97;55.75
12973;BME280;6551;51.056;9.466;2023-01-28T15:05:19;98655.97;;;4.93;56.46
12973;BME280;6551;51.056;9.466;2023-01-28T15:07:47;98634.00;;;4.85;56.73
12973;BME280;6551;51.056;9.466;2023-01-28T15:10:37;98622.47;;;4.86;56.66
12973;BME280;6551;51.056;9.466;2023-01-28T15:13:29;98635.94;;;4.75;56.71
12973;BME280;6551;51.056;9.466;2023-01-28T15:15:57;98642.31;;;4.72;57.96
12973;BME280;6551;51.056;9.466;2023-01-28T15:18:38;98649.97;;;4.83;57.39
12973;BME280;6551;51.056;9.466;2023-01-28T15:21:05;98648.00;;;4.85;57.75
12973;BME280;6551;51.056;9.466;2023-01-28T15:23:36;98636.47;;;4.86;57.88
12973;BME280;6551;51.056;9.466;2023-01-28T15:26:32;98642.28;;;4.98;57.53
12973;BME280;6551;51.056;9.466;2023-01-28T15:28:59;98661.94;;;5.03;56.97
12973;BME280;6551;51.056;9.466;2023-01-28T15:31:34;98667.41;;;5.10;56.92
12973;BME280;6551;51.056;9.466;2023-01-28T15:34:19;98669.84;;;5.03;57.42
12973;BME280;6551;51.056;9.466;2023-01-28T15:36:47;98666.38;;;5.03;57.47
12973;BME280;6551;51.056;9.466;2023-01-28T15:39:21;98661.09;;;5.03;56.92
12973;BME280;6551;51.056;9.466;2023-01-28T15:42:16;98662.56;;;4.97;56.42
12973;BME280;6551;51.056;9.466;2023-01-28T15:44:44;98664.81;;;4.84;57.15
12973;BME280;6551;51.056;9.466;2023-01-28T15:47:25;98658.56;;;4.85;57.37
12973;BME280;6551;51.056;9.466;2023-01-28T15:49:56;98661.19;;;4.77;57.53